Time;durP1;ratioP1;P1;durP2;ratioP2;P2;SDS_P1;SDS_P2;PMS_P1;PMS_P2;Temp;Humidity;BMP_temperature;BMP_pressure;BME280_temperature;BME280_humidity;BME280_pressure;Samples;Min_cycle;Max_cycle;Signal;HPM_P1;HPM_P2
2021/05/11 15:20:20;;;;;;;4.22;3.25;;;;;;;;;;5111627;28;20188;-78
2021/05/11 15:22:50;;;;;;;8.55;3.42;;;;;;;;;;5112095;28;20177;-79
2021/05/11 15:25:16;;;;;;;5.63;3.60;;;;;;;;;;5111406;28;20154;-79
2021/05/11 15:27:42;;;;;;;6.07;3.28;;;;;;;;;;5111173;28;20644;-80
2021/05/11 15:30:07;;;;;;;5.95;3.20;;;;;;;;;;5108806;28;20194;-79
2021/05/11 15:32:47;;;;;;;7.90;3.40;;;;;;;;;;5090891;28;20194;-79
2021/05/11 15:35:17;;;;;;;4.55;3.10;;;;;;;;;;5090877;28;20624;-79
2021/05/11 15:37:43;;;;;;;10.20;3.50;;;;;;;;;;5091303;28;20208;-81
2021/05/11 15:40:10;;;;;;;5.10;3.28;;;;;;;;;;5090958;28;20523;-80
2021/05/11 15:42:35;;;;;;;4.95;3.60;;;;;;;;;;5091008;28;20224;-80
2021/05/11 15:45:00;;;;;;;7.65;3.63;;;;;;;;;;5091124;28;20167;-79
2021/05/11 15:47:26;;;;;;;5.38;3.40;;;;;;;;;;5107250;28;20186;-80
2021/05/11 15:49:51;;;;;;;6.30;3.50;;;;;;;;;;5091045;28;20170;-80
2021/05/11 15:52:17;;;;;;;4.95;3.42;;;;;;;;;;5072710;28;20175;-80
2021/05/11 15:54:42;;;;;;;4.88;3.30;;;;;;;;;;5072322;28;20177;-79
2021/05/11 15:57:07;;;;;;;4.25;3.30;;;;;;;;;;5091453;28;20537;-79
2021/05/11 15:59:33;;;;;;;3.60;3.17;;;;;;;;;;5090107;28;20805;-80
2021/05/11 16:01:59;;;;;;;7.95;3.70;;;;;;;;;;5089030;28;20186;-79
2021/05/11 16:04:25;;;;;;;8.50;3.78;;;;;;;;;;5090718;28;20174;-79
2021/05/11 16:06:50;;;;;;;3.78;3.28;;;;;;;;;;5090549;28;20547;-79
2021/05/11 16:09:15;;;;;;;6.78;3.50;;;;;;;;;;5090279;28;20170;-78
2021/05/11 16:11:41;;;;;;;4.50;3.30;;;;;;;;;;5090515;28;20201;-79
2021/05/11 16:14:06;;;;;;;6.65;3.50;;;;;;;;;;5090329;28;20170;-79
2021/05/11 16:16:32;;;;;;;6.55;3.30;;;;;;;;;;5090329;28;20292;-80
2021/05/11 16:18:58;;;;;;;3.63;3.10;;;;;;;;;;5089417;28;20617;-83
2021/05/11 16:21:23;;;;;;;6.70;3.63;;;;;;;;;;5072172;28;20265;-79
2021/05/11 16:23:48;;;;;;;8.68;3.38;;;;;;;;;;5089915;28;20167;-80
2021/05/11 16:26:14;;;;;;;6.38;3.47;;;;;;;;;;5090037;28;20574;-79
2021/05/11 16:28:39;;;;;;;8.50;3.58;;;;;;;;;;5080316;28;20246;-80
2021/05/11 16:31:05;;;;;;;5.93;3.35;;;;;;;;;;5076440;28;20191;-79
2021/05/11 16:33:30;;;;;;;7.13;3.42;;;;;;;;;;5058604;28;20171;-79
2021/05/11 16:35:56;;;;;;;3.85;3.55;;;;;;;;;;5076882;28;20203;-81
2021/05/11 16:38:21;;;;;;;7.45;4.03;;;;;;;;;;5076260;28;20176;-80
2021/05/11 16:40:46;;;;;;;4.97;3.63;;;;;;;;;;5076394;28;20175;-81
2021/05/11 16:43:15;;;;;;;4.35;3.70;;;;;;;;;;5076412;28;20167;-79
2021/05/11 16:45:40;;;;;;;9.38;3.60;;;;;;;;;;5076226;28;20229;-80
2021/05/11 16:48:05;;;;;;;5.35;3.70;;;;;;;;;;5075568;28;20179;-81
2021/05/11 16:50:32;;;;;;;5.00;3.50;;;;;;;;;;5076267;28;20181;-81
2021/05/11 16:53:02;;;;;;;7.22;3.67;;;;;;;;;;5075367;28;20167;-82
2021/05/11 16:55:28;;;;;;;7.43;4.03;;;;;;;;;;5075988;28;20175;-80
2021/05/11 16:57:56;;;;;;;6.22;3.60;;;;;;;;;;5075591;28;20229;-79
2021/05/11 17:00:22;;;;;;;4.57;3.55;;;;;;;;;;5075900;28;20167;-80
2021/05/11 17:02:47;;;;;;;6.95;3.88;;;;;;;;;;5076134;28;20174;-80
2021/05/11 17:05:14;;;;;;;5.05;3.80;;;;;;;;;;5076416;28;20250;-80
2021/05/11 17:07:39;;;;;;;5.03;3.55;;;;;;;;;;5075807;28;20199;-80
2021/05/11 17:10:05;;;;;;;4.32;3.75;;;;;;;;;;5076059;28;20213;-80
2021/05/11 17:12:31;;;;;;;8.75;3.97;;;;;;;;;;5076379;28;20186;-79
2021/05/11 17:14:56;;;;;;;6.88;3.70;;;;;;;;;;5076054;28;20567;-79
2021/05/11 17:17:22;;;;;;;4.05;3.60;;;;;;;;;;5075395;28;20242;-80
2021/05/11 17:19:48;;;;;;;8.32;4.50;;;;;;;;;;5041021;28;20183;-81
2021/05/11 17:22:13;;;;;;;7.05;4.05;;;;;;;;;;5057930;28;20258;-79
2021/05/11 17:24:38;;;;;;;5.90;3.80;;;;;;;;;;5074916;28;20183;-80
2021/05/11 17:27:04;;;;;;;6.15;3.83;;;;;;;;;;5075744;28;20709;-80
2021/05/11 17:29:29;;;;;;;3.85;3.50;;;;;;;;;;5075030;28;20183;-79
2021/05/11 17:31:55;;;;;;;5.15;3.30;;;;;;;;;;5057730;28;20207;-80
2021/05/11 17:34:21;;;;;;;6.88;3.78;;;;;;;;;;5075359;28;20171;-80
2021/05/11 17:36:46;;;;;;;4.47;3.83;;;;;;;;;;5075143;28;20203;-79
2021/05/11 17:39:12;;;;;;;5.70;3.78;;;;;;;;;;5074962;28;20209;-79
2021/05/11 17:41:38;;;;;;;7.73;3.90;;;;;;;;;;5075173;28;20771;-79
2021/05/11 17:44:03;;;;;;;5.53;3.90;;;;;;;;;;5057496;28;20181;-80
2021/05/11 17:46:29;;;;;;;5.13;3.70;;;;;;;;;;5074694;28;20250;-80
2021/05/11 17:48:55;;;;;;;4.83;3.87;;;;;;;;;;5075285;28;20175;-79
2021/05/11 17:51:21;;;;;;;5.77;3.83;;;;;;;;;;5074890;28;20175;-79
2021/05/11 17:53:46;;;;;;;6.37;4.10;;;;;;;;;;5057133;28;20190;-79
2021/05/11 17:56:12;;;;;;;4.97;4.47;;;;;;;;;;5075027;28;20203;-78
2021/05/11 17:58:37;;;;;;;6.47;4.10;;;;;;;;;;5075270;28;20257;-79
2021/05/11 18:01:03;;;;;;;5.37;4.10;;;;;;;;;;5074957;28;20252;-79
2021/05/11 18:03:30;;;;;;;5.07;3.93;;;;;;;;;;5074948;28;20568;-79
2021/05/11 18:05:55;;;;;;;5.37;3.60;;;;;;;;;;5073992;28;20685;-80
2021/05/11 18:08:29;;;;;;;4.60;3.70;;;;;;;;;;5074703;28;20171;-79
2021/05/11 18:10:54;;;;;;;4.73;3.90;;;;;;;;;;5075059;28;20155;-80
2021/05/11 18:13:19;;;;;;;7.10;3.70;;;;;;;;;;5074228;28;20216;-80
2021/05/11 18:15:45;;;;;;;7.83;3.90;;;;;;;;;;5073962;28;20643;-80
2021/05/11 18:18:10;;;;;;;4.30;4.00;;;;;;;;;;5074818;28;20166;-79
2021/05/11 18:20:35;;;;;;;6.10;4.23;;;;;;;;;;5074801;28;20224;-79
2021/05/11 18:23:01;;;;;;;7.53;4.27;;;;;;;;;;5074423;28;20208;-79
2021/05/11 18:25:26;;;;;;;5.67;4.80;;;;;;;;;;5074984;28;20236;-79
2021/05/11 18:27:51;;;;;;;5.03;4.50;;;;;;;;;;5074372;28;20167;-79
2021/05/11 18:30:18;;;;;;;4.00;3.60;;;;;;;;;;5074819;28;20191;-79
2021/05/11 18:32:44;;;;;;;5.83;4.10;;;;;;;;;;5074463;28;20525;-79
2021/05/11 18:35:10;;;;;;;5.10;4.10;;;;;;;;;;5056285;28;20175;-78
2021/05/11 18:37:51;;;;;;;7.67;4.20;;;;;;;;;;5074186;28;20199;-79
2021/05/11 18:40:17;;;;;;;4.43;3.83;;;;;;;;;;5055972;28;20190;-79
2021/05/11 18:42:42;;;;;;;6.47;4.43;;;;;;;;;;5073888;28;20167;-79
2021/05/11 18:45:08;;;;;;;6.83;3.90;;;;;;;;;;5074085;28;20171;-78
2021/05/11 18:47:34;;;;;;;7.07;4.33;;;;;;;;;;5074287;28;20311;-79
2021/05/11 18:49:59;;;;;;;5.10;4.17;;;;;;;;;;5073747;28;20168;-79
2021/05/11 18:52:24;;;;;;;6.23;4.60;;;;;;;;;;5073456;28;20614;-79
2021/05/11 18:54:52;;;;;;;6.73;4.43;;;;;;;;;;5074277;28;20171;-79
2021/05/11 18:57:18;;;;;;;6.27;4.90;;;;;;;;;;5073832;28;20256;-79
2021/05/11 18:59:43;;;;;;;5.53;4.70;;;;;;;;;;5074465;28;20254;-79
2021/05/11 19:02:09;;;;;;;6.70;4.47;;;;;;;;;;5073920;28;20175;-79
2021/05/11 19:04:34;;;;;;;5.87;4.40;;;;;;;;;;5074423;28;20194;-79
2021/05/11 19:07:00;;;;;;;4.60;4.20;;;;;;;;;;5073812;28;20217;-79
2021/05/11 19:09:25;;;;;;;6.63;4.43;;;;;;;;;;5073863;28;20640;-79
2021/05/11 19:11:50;;;;;;;6.97;4.10;;;;;;;;;;5073808;28;20171;-79
2021/05/11 19:14:17;;;;;;;4.63;4.13;;;;;;;;;;5073928;28;20205;-79
2021/05/11 19:16:42;;;;;;;8.70;4.70;;;;;;;;;;5055456;28;20655;-79
2021/05/11 19:19:08;;;;;;;6.03;4.40;;;;;;;;;;5073755;28;20254;-79
2021/05/11 19:21:34;;;;;;;4.90;4.10;;;;;;;;;;5073435;28;20614;-80
2021/05/11 19:23:59;;;;;;;6.27;4.50;;;;;;;;;;5073566;28;20227;-89
2021/05/11 19:26:25;;;;;;;5.03;4.37;;;;;;;;;;5052354;28;20175;-80
2021/05/11 19:28:50;;;;;;;4.50;4.10;;;;;;;;;;5073255;28;20171;-80
2021/05/11 19:31:16;;;;;;;5.37;4.43;;;;;;;;;;5055497;28;20715;-80
2021/05/11 19:33:47;;;;;;;5.30;4.10;;;;;;;;;;5073085;28;20178;-80
2021/05/11 19:36:14;;;;;;;6.87;4.43;;;;;;;;;;5073707;28;20195;-80
2021/05/11 19:38:40;;;;;;;5.67;4.40;;;;;;;;;;5073505;28;20250;-80
2021/05/11 19:41:06;;;;;;;5.07;3.97;;;;;;;;;;5055328;28;20174;-79
2021/05/11 19:43:31;;;;;;;4.30;3.87;;;;;;;;;;5072790;28;20640;-79
2021/05/11 19:45:57;;;;;;;5.60;4.53;;;;;;;;;;5054727;28;20172;-79
2021/05/11 19:48:23;;;;;;;4.37;3.97;;;;;;;;;;5072530;28;20167;-79
2021/05/11 19:50:48;;;;;;;4.80;3.80;;;;;;;;;;5072904;28;20175;-79
2021/05/11 19:53:13;;;;;;;6.80;4.30;;;;;;;;;;5072552;28;20224;-80
2021/05/11 19:55:42;;;;;;;6.30;4.17;;;;;;;;;;5072773;28;20171;-80
2021/05/11 19:58:08;;;;;;;5.90;3.70;;;;;;;;;;5072730;28;20626;-80
2021/05/11 20:00:33;;;;;;;5.60;4.00;;;;;;;;;;5072921;28;20229;-80
2021/05/11 20:02:58;;;;;;;4.33;3.80;;;;;;;;;;5073598;28;20171;-81
2021/05/11 20:05:24;;;;;;;4.80;4.37;;;;;;;;;;5058479;28;20225;-80
2021/05/11 20:07:49;;;;;;;5.83;4.00;;;;;;;;;;5076159;28;20171;-80
2021/05/11 20:10:14;;;;;;;5.00;4.33;;;;;;;;;;5076425;28;20168;-80
2021/05/11 20:12:40;;;;;;;4.77;4.10;;;;;;;;;;5058819;28;20179;-80
2021/05/11 20:18:11;;;;;;;4.00;3.60;;;;;;;;;;5025681;28;20353;-80
2021/05/11 20:20:37;;;;;;;5.63;4.17;;;;;;;;;;5035841;28;20275;-80
2021/05/11 20:23:02;;;;;;;4.50;4.10;;;;;;;;;;5034838;28;20188;-80
2021/05/11 20:25:28;;;;;;;4.43;4.03;;;;;;;;;;5037170;28;20204;-80
2021/05/11 20:27:53;;;;;;;8.33;4.10;;;;;;;;;;5036473;28;20176;-80
2021/05/11 20:30:19;;;;;;;6.33;4.63;;;;;;;;;;5036672;28;20214;-80
2021/05/11 20:32:44;;;;;;;6.30;4.20;;;;;;;;;;5036955;28;20173;-80
2021/05/11 20:35:16;;;;;;;5.13;4.50;;;;;;;;;;5036414;28;20255;-80
2021/05/11 20:37:54;;;;;;;4.97;3.90;;;;;;;;;;5036565;28;20189;-80
2021/05/11 20:40:21;;;;;;;6.40;4.20;;;;;;;;;;5037135;28;20180;-79
2021/05/11 20:42:46;;;;;;;7.60;4.20;;;;;;;;;;5036733;28;20631;-80
2021/05/11 20:45:12;;;;;;;4.30;4.00;;;;;;;;;;5036745;28;20210;-80
2021/05/11 20:47:37;;;;;;;4.63;4.23;;;;;;;;;;5036653;28;20628;-80
2021/05/11 20:50:04;;;;;;;7.40;4.17;;;;;;;;;;5036265;28;20179;-80
2021/05/11 20:52:30;;;;;;;4.93;4.00;;;;;;;;;;5036149;28;20498;-79
2021/05/11 20:54:55;;;;;;;5.00;3.87;;;;;;;;;;5035492;28;20207;-80
2021/05/11 20:57:20;;;;;;;5.43;4.60;;;;;;;;;;5036449;28;20196;-80
2021/05/11 20:59:46;;;;;;;5.20;4.13;;;;;;;;;;5036246;28;20530;-80
2021/05/11 21:02:11;;;;;;;5.23;4.13;;;;;;;;;;5036100;28;20218;-80
2021/05/11 21:04:36;;;;;;;4.80;3.83;;;;;;;;;;5035085;28;20184;-80
2021/05/11 21:07:02;;;;;;;5.03;3.87;;;;;;;;;;5035385;28;20623;-80
2021/05/11 21:09:27;;;;;;;4.50;4.10;;;;;;;;;;5035974;28;20219;-80
2021/05/11 21:11:53;;;;;;;5.67;4.10;;;;;;;;;;5035726;28;20174;-80
2021/05/11 21:14:18;;;;;;;9.07;4.10;;;;;;;;;;5051145;28;20184;-80
2021/05/11 21:16:43;;;;;;;4.50;4.10;;;;;;;;;;5046538;28;20245;-79
2021/05/11 21:19:09;;;;;;;6.67;4.07;;;;;;;;;;5075165;28;20178;-80
2021/05/11 21:21:34;;;;;;;9.87;4.50;;;;;;;;;;5075842;28;20250;-80
2021/05/11 21:24:00;;;;;;;4.60;4.20;;;;;;;;;;5075575;28;20174;-80
2021/05/11 21:26:26;;;;;;;4.50;4.10;;;;;;;;;;5075873;28;20197;-80
2021/05/11 21:28:51;;;;;;;5.13;3.90;;;;;;;;;;5075572;28;20171;-80
2021/05/11 21:31:17;;;;;;;5.50;4.33;;;;;;;;;;5075378;28;20244;-80
2021/05/11 21:33:42;;;;;;;6.20;4.87;;;;;;;;;;5075429;28;20175;-80
2021/05/11 21:36:07;;;;;;;6.83;3.80;;;;;;;;;;5075749;28;20195;-80
2021/05/11 21:38:33;;;;;;;4.90;4.20;;;;;;;;;;5075070;28;20167;-80
2021/05/11 21:40:58;;;;;;;4.47;4.07;;;;;;;;;;5075489;28;20541;-80
2021/05/11 21:43:23;;;;;;;6.23;4.40;;;;;;;;;;5074533;28;20270;-79
2021/05/11 21:45:49;;;;;;;5.00;4.33;;;;;;;;;;5075155;28;20171;-79
2021/05/11 21:48:15;;;;;;;5.03;4.10;;;;;;;;;;5075428;28;20171;-79
2021/05/11 21:50:41;;;;;;;4.87;4.20;;;;;;;;;;5074666;28;20215;-80
2021/05/11 21:53:08;;;;;;;5.87;4.17;;;;;;;;;;5074730;28;20207;-80
2021/05/11 21:55:35;;;;;;;5.53;4.40;;;;;;;;;;5074895;28;20175;-80
2021/05/11 21:58:00;;;;;;;4.43;4.03;;;;;;;;;;5074399;28;20558;-80
2021/05/11 22:00:27;;;;;;;4.37;3.97;;;;;;;;;;5057169;28;20187;-80
2021/05/11 22:02:53;;;;;;;4.60;4.20;;;;;;;;;;5074945;28;20229;-79
2021/05/11 22:05:18;;;;;;;4.63;4.07;;;;;;;;;;5074848;28;20175;-79
2021/05/11 22:07:44;;;;;;;6.07;4.13;;;;;;;;;;5074509;28;20633;-79
2021/05/11 22:10:09;;;;;;;7.20;4.60;;;;;;;;;;5074448;28;20566;-80
2021/05/11 22:12:35;;;;;;;5.40;4.03;;;;;;;;;;5074680;28;20171;-80
2021/05/11 22:15:00;;;;;;;5.17;4.00;;;;;;;;;;5074649;28;20167;-79
2021/05/11 22:17:25;;;;;;;7.00;4.53;;;;;;;;;;5073780;28;20245;-79
2021/05/11 22:19:51;;;;;;;4.90;4.43;;;;;;;;;;5074265;28;20517;-79
2021/05/11 22:22:16;;;;;;;5.63;4.10;;;;;;;;;;5056088;28;20533;-79
2021/05/11 22:24:42;;;;;;;4.57;4.17;;;;;;;;;;5074463;28;20167;-79
2021/05/11 22:27:07;;;;;;;5.53;4.10;;;;;;;;;;5074005;28;20641;-79
2021/05/11 22:29:32;;;;;;;5.60;4.50;;;;;;;;;;5074632;28;20490;-79
2021/05/11 22:31:57;;;;;;;6.50;4.23;;;;;;;;;;5074179;28;20231;-79
2021/05/11 22:34:23;;;;;;;4.60;4.20;;;;;;;;;;5056359;28;20262;-79
2021/05/11 22:36:48;;;;;;;6.87;4.40;;;;;;;;;;5074609;28;20238;-79
2021/05/11 22:39:14;;;;;;;4.63;4.23;;;;;;;;;;5074276;28;20170;-79
2021/05/11 22:41:41;;;;;;;4.73;4.33;;;;;;;;;;5056645;28;20199;-79
2021/05/11 22:44:07;;;;;;;6.47;4.53;;;;;;;;;;5074265;28;20175;-79
2021/05/11 22:46:32;;;;;;;6.93;4.27;;;;;;;;;;5074163;28;20572;-79
2021/05/11 22:48:58;;;;;;;5.70;4.13;;;;;;;;;;5074636;28;20164;-79
2021/05/11 22:51:23;;;;;;;5.90;4.50;;;;;;;;;;5074038;28;20171;-79
2021/05/11 22:53:49;;;;;;;6.07;4.40;;;;;;;;;;5073972;28;20167;-79
2021/05/11 22:56:14;;;;;;;6.63;4.83;;;;;;;;;;5074197;28;20661;-80
2021/05/11 22:58:40;;;;;;;4.77;4.27;;;;;;;;;;5073713;28;20167;-80
2021/05/11 23:01:05;;;;;;;6.97;4.43;;;;;;;;;;5074240;28;20210;-80
2021/05/11 23:03:31;;;;;;;4.77;4.20;;;;;;;;;;5074423;28;20175;-80
2021/05/11 23:05:56;;;;;;;6.83;4.30;;;;;;;;;;5056169;28;20618;-80
2021/05/11 23:08:21;;;;;;;5.13;4.47;;;;;;;;;;5073627;28;20530;-80
2021/05/11 23:10:47;;;;;;;5.90;4.20;;;;;;;;;;5074144;28;20171;-80
2021/05/11 23:13:12;;;;;;;6.23;4.50;;;;;;;;;;5056347;28;20621;-80
2021/05/11 23:15:46;;;;;;;6.97;4.83;;;;;;;;;;5073849;28;20167;-80
2021/05/11 23:18:16;;;;;;;5.63;4.70;;;;;;;;;;5074771;28;20526;-80
2021/05/11 23:20:42;;;;;;;4.83;4.30;;;;;;;;;;5073815;28;20167;-80
2021/05/11 23:23:08;;;;;;;4.27;3.90;;;;;;;;;;5073467;28;20625;-80
2021/05/11 23:25:33;;;;;;;4.63;4.13;;;;;;;;;;5055769;28;20182;-80
2021/05/11 23:27:59;;;;;;;6.30;4.50;;;;;;;;;;5073633;28;20600;-80
2021/05/11 23:30:25;;;;;;;6.80;4.17;;;;;;;;;;5073564;28;20195;-80
2021/05/11 23:32:50;;;;;;;4.70;4.30;;;;;;;;;;5073916;28;20614;-80
2021/05/11 23:35:16;;;;;;;5.50;4.03;;;;;;;;;;5074223;28;20262;-79
2021/05/11 23:37:42;;;;;;;4.83;4.40;;;;;;;;;;5074072;28;20637;-80
2021/05/11 23:40:14;;;;;;;5.53;4.27;;;;;;;;;;5077710;28;20182;-80
2021/05/11 23:42:39;;;;;;;4.77;4.23;;;;;;;;;;5077893;28;20155;-80
2021/05/11 23:45:05;;;;;;;4.50;4.10;;;;;;;;;;5077492;28;20189;-80
2021/05/11 23:47:30;;;;;;;6.63;4.30;;;;;;;;;;5077378;28;20599;-80
2021/05/11 23:49:55;;;;;;;6.07;4.13;;;;;;;;;;5077148;28;20283;-79
2021/05/11 23:52:21;;;;;;;4.50;4.10;;;;;;;;;;5077402;28;20167;-79
2021/05/11 23:54:46;;;;;;;7.17;4.50;;;;;;;;;;5059438;28;20222;-79
2021/05/11 23:57:11;;;;;;;5.77;3.90;;;;;;;;;;5077278;28;20223;-79
2021/05/11 23:59:36;;;;;;;4.30;3.83;;;;;;;;;;5077492;28;20301;-79
